Buoy 32868

sailwx.info

Track history (hours):
 
Tides and Currents Weather Stations Pressure Air Temp Water Temp Dewpoint Dewpoint Depression Visibility Wind Speed Wind Dir Waves Ship Positions

Drifting buoy 32868

Last reported at 2018-Jun-17 17:57 UTC. Time now 2018-Jun-17 22:12 UTC.
Position S 31°53' W 107°41'.

Water temperature 20.5 ° C

Date/timePositionNaut miles runAvg speedWind from/ knotsBaromVisibWave heightAir tempDewpointWater temp
2018-Jun-17 17:57S 31°53' W 107°41'0 0.0 20.5
2018-Jun-17 16:58S 31°53' W 107°41'1 1.0 20.5
2018-Jun-17 16:11S 31°53' W 107°40'1 0.7 20.5
2018-Jun-17 15:27S 31°53' W 107°41'1 3.6 20.5
2018-Jun-17 15:17S 31°54' W 107°41'0 0.0 20.5
2018-Jun-17 15:12S 31°54' W 107°41'1 1.0 20.5
2018-Jun-17 14:24S 31°55' W 107°40'1 1.8 20.5
2018-Jun-17 14:07S 31°55' W 107°41'0 0.0 20.5
2018-Jun-17 14:03S 31°55' W 107°41'0 0.0 20.5
2018-Jun-17 13:50S 31°55' W 107°41'0 0.0 20.5
2018-Jun-17 12:53S 31°55' W 107°41'0 0.0 20.5
2018-Jun-17 12:42S 31°55' W 107°41'1 4.1 20.5
2018-Jun-17 12:23S 31°56' W 107°41'0 0.0 20.5
2018-Jun-17 11:12S 31°56' W 107°41'1 0.4 20.5
2018-Jun-17 09:26S 31°56' W 107°41'0 0.0 20.5
2018-Jun-17 06:39S 31°56' W 107°41'1 0.6 20.5
2018-Jun-17 05:46S 31°56' W 107°41'0 0.0 20.5
2018-Jun-17 05:42S 31°56' W 107°41'0 0.0 20.5
2018-Jun-17 05:00S 31°56' W 107°41'1 0.8 20.5
2018-Jun-17 04:24S 31°56' W 107°41'0 0.0 20.5
2018-Jun-17 04:12S 31°56' W 107°41'0 0.0 20.5
2018-Jun-17 04:01S 31°56' W 107°41'1 0.4 20.5
2018-Jun-17 02:49S 31°56' W 107°40'1 1.6 20.5
2018-Jun-17 02:26S 31°57' W 107°40'0 0.0 20.5
2018-Jun-17 02:07S 31°57' W 107°40'0 0.0 20.5
2018-Jun-17 02:03S 31°57' W 107°40'1 1.0 20.5
2018-Jun-17 01:31S 31°57' W 107°40'1 1.5 20.5
2018-Jun-17 01:10S 31°57' W 107°40'0 0.0 20.5
2018-Jun-17 01:06S 31°57' W 107°40'0 0.0 20.5
2018-Jun-17 00:26S 31°57' W 107°40'0 0.0
2018-Jun-17 00:23S 31°57' W 107°40'1 2.3 20.5
2018-Jun-16 23:56S 31°57' W 107°39'1 0.3 20.5
2018-Jun-16 22:11S 31°57' W 107°40'2 0.5 20.5
2018-Jun-16 17:13S 31°59' W 107°40'1 1.0 20.3
2018-Jun-16 16:37S 32°00' W 107°40'1 0.3 20.3
2018-Jun-16 14:53S 32°01' W 107°40'0 0.0 20.4
2018-Jun-16 14:26S 32°01' W 107°40'0 0.0 20.4
2018-Jun-16 14:01S 32°01' W 107°40'0 0.0 20.4
2018-Jun-16 13:12S 32°01' W 107°40'1 1.2 20.4
2018-Jun-16 12:47S 32°01' W 107°41'0 0.0 20.4
2018-Jun-16 11:25S 32°01' W 107°41'0 0.0 20.4
2018-Jun-16 09:47S 32°01' W 107°41'0 0.0 20.4
2018-Jun-16 09:43S 32°01' W 107°41'1 0.2 20.4
2018-Jun-16 06:56S 32°01' W 107°40'0 0.0 20.3
2018-Jun-16 06:01S 32°01' W 107°40'0 0.0 20.3
2018-Jun-16 05:21S 32°01' W 107°40'0 0.0 20.3
2018-Jun-16 04:20S 32°01' W 107°40'1 3.8 20.3
2018-Jun-16 04:12S 32°01' W 107°40'1 1.1
2018-Jun-16 03:40S 32°01' W 107°40'0 0.0 20.4
2018-Jun-16 03:11S 32°01' W 107°40'0 0.0 20.4
2018-Jun-16 02:43S 32°01' W 107°40'1 3.6 20.4
2018-Jun-16 02:33S 32°02' W 107°40'0 0.0 20.4
2018-Jun-16 01:42S 32°02' W 107°40'1 6.0 20.3
2018-Jun-16 01:36S 32°01' W 107°40'1 1.2 20.3
2018-Jun-16 00:57S 32°02' W 107°39'1 0.9 20.4
2018-Jun-16 00:07S 32°02' W 107°40'1 0.7 20.4
2018-Jun-15 23:18S 32°03' W 107°40'1 0.6 20.4
2018-Jun-15 22:25S 32°03' W 107°39'3 0.6 20.4
2018-Jun-15 17:36S 32°06' W 107°40'1 1.9 20.3
2018-Jun-15 16:58S 32°05' W 107°41'0 0.0 20.2
2018-Jun-15 16:01S 32°05' W 107°41'1 7.6 20.2
2018-Jun-15 15:57S 32°05' W 107°41'0 0.0 20.2
2018-Jun-15 15:23S 32°05' W 107°41'0 0.0 20.2
2018-Jun-15 15:15S 32°05' W 107°41'1 1.3 20.2
2018-Jun-15 14:52S 32°05' W 107°42'1 0.9 20.2
2018-Jun-15 14:12S 32°05' W 107°42'0 0.0 20.3
2018-Jun-15 13:44S 32°05' W 107°42'1 1.1 20.4
2018-Jun-15 13:12S 32°04' W 107°42'0 0.0 20.5
2018-Jun-15 12:34S 32°04' W 107°42'0 0.0 20.5
2018-Jun-15 12:05S 32°04' W 107°42'1 1.7 20.5
2018-Jun-15 11:37S 32°04' W 107°43'1 0.4 20.4
2018-Jun-15 10:00S 32°03' W 107°43'0 0.0 20.1
2018-Jun-15 09:56S 32°03' W 107°43'2 0.5 20.1
2018-Jun-15 06:21S 32°02' W 107°44'0 0.0 20.3
2018-Jun-15 05:41S 32°02' W 107°44'1 0.5 20.4
2018-Jun-15 04:41S 32°02' W 107°45'1 7.9 20.4
2018-Jun-15 04:35S 32°01' W 107°44'1 3.1 20.4
2018-Jun-15 04:25S 32°01' W 107°45'1 1.3 20.4
2018-Jun-15 04:01S 32°01' W 107°44'1 1.2 20.5
2018-Jun-15 03:36S 32°01' W 107°45'0 0.0 20.5
2018-Jun-15 02:56S 32°01' W 107°45'0 0.0 20.5
2018-Jun-15 02:52S 32°01' W 107°45'1 0.6 20.5
2018-Jun-15 01:59S 32°01' W 107°46'0 0.0 20.5
2018-Jun-15 01:51S 32°01' W 107°46'0 0.0 20.5
2018-Jun-15 01:27S 32°01' W 107°46'0 0.0 20.5
2018-Jun-15 01:25S 32°01' W 107°46'0 0.0 20.5
2018-Jun-15 00:18S 32°01' W 107°46'1 1.1 20.4
2018-Jun-14 23:50S 32°01' W 107°46'0 0.0 20.4
2018-Jun-14 23:44S 32°01' W 107°46'1 0.7 20.4
2018-Jun-14 22:38S 32°01' W 107°46'311.2 20.4
2018-Jun-14 22:24S 32°00' W 107°49'0 0.0 20.4
2018-Jun-14 17:58S 32°00' W 107°49'0 0.0 20.5
2018-Jun-14 17:55S 32°00' W 107°49'0 0.0 20.5
2018-Jun-14 17:13S 32°00' W 107°49'1 0.9 20.5
2018-Jun-14 16:21S 31°59' W 107°49'0 0.0 20.5
2018-Jun-14 16:12S 31°59' W 107°49'1 5.9 20.5
2018-Jun-14 16:04S 31°59' W 107°49'1 1.2 20.5
2018-Jun-14 15:38S 31°59' W 107°49'1 1.6 20.5
2018-Jun-14 15:19S 31°59' W 107°50'1 6.0 20.5
2018-Jun-14 15:13S 31°58' W 107°50'0 0.0 20.5
2018-Jun-14 14:26S 31°58' W 107°50'0 0.0 20.5
2018-Jun-14 14:12S 31°58' W 107°50'1 0.9 20.5
2018-Jun-14 13:38S 31°58' W 107°49'1 0.8 20.5
2018-Jun-14 12:37S 31°58' W 107°50'1 1.0 20.5
2018-Jun-14 12:01S 31°57' W 107°50'0 0.0 20.5
2018-Jun-14 11:52S 31°57' W 107°50'0 0.0 20.5
2018-Jun-14 11:48S 31°57' W 107°50'1 0.4 20.5
2018-Jun-14 10:11S 31°56' W 107°50'0 0.0 20.5
2018-Jun-14 10:07S 31°56' W 107°50'1 0.2 20.5
2018-Jun-14 06:40S 31°56' W 107°49'1 0.9 20.6
2018-Jun-14 06:02S 31°55' W 107°49'0 0.0 20.6
2018-Jun-14 05:03S 31°55' W 107°49'1 1.8 20.6
2018-Jun-14 04:46S 31°55' W 107°50'0 0.0 20.6
2018-Jun-14 04:23S 31°55' W 107°50'1 1.7 20.6
2018-Jun-14 04:02S 31°55' W 107°50'1 1.2 20.6
2018-Jun-14 03:21S 31°55' W 107°49'0 0.0 20.6
2018-Jun-14 03:15S 31°55' W 107°49'0 0.0 20.6
2018-Jun-14 03:07S 31°55' W 107°49'1 0.8 20.6
2018-Jun-14 02:27S 31°55' W 107°50'0 0.0 20.6
2018-Jun-14 02:01S 31°55' W 107°50'1 9.0 20.6
2018-Jun-14 01:57S 31°55' W 107°50'1 0.5 20.6
2018-Jun-14 00:45S 31°55' W 107°50'1 1.6 20.6
2018-Jun-14 00:26S 31°55' W 107°50'0 0.0 20.6
2018-Jun-14 00:20S 31°55' W 107°50'0 0.0
2018-Jun-14 00:18S 31°55' W 107°50'1 0.5 20.6
2018-Jun-13 22:49S 31°55' W 107°51'2 0.5 20.7
2018-Jun-13 18:17S 31°53' W 107°53'0 0.0 20.6
2018-Jun-13 17:37S 31°53' W 107°53'1 0.5 20.6
2018-Jun-13 16:19S 31°52' W 107°53'0 0.0 20.6
2018-Jun-13 16:12S 31°52' W 107°53'0 0.0 20.6
2018-Jun-13 15:59S 31°52' W 107°53'1 0.6 20.6
2018-Jun-13 15:02S 31°52' W 107°53'0 0.0 20.6
2018-Jun-13 14:46S 31°52' W 107°53'1 3.4 20.6
2018-Jun-13 14:37S 31°52' W 107°53'1 1.5 20.6
2018-Jun-13 14:06S 31°51' W 107°53'0 0.0 20.6
2018-Jun-13 14:03S 31°51' W 107°53'1 0.6 20.6
2018-Jun-13 13:09S 31°51' W 107°52'1 3.3 20.6
2018-Jun-13 12:58S 31°50' W 107°52'1 1.2 20.6
2018-Jun-13 12:20S 31°50' W 107°52'1 1.8 20.6
2018-Jun-13 12:03S 31°50' W 107°52'1 7.6 20.6
2018-Jun-13 11:59S 31°50' W 107°52'1 0.4 20.6
2018-Jun-13 10:22S 31°49' W 107°52'0 0.0 20.6
2018-Jun-13 10:18S 31°49' W 107°52'2 0.5 20.6
2018-Jun-13 06:59S 31°49' W 107°50'0 0.0 20.6
2018-Jun-13 06:21S 31°49' W 107°50'0 0.0 20.6
2018-Jun-13 05:24S 31°49' W 107°50'0 0.0 20.6
2018-Jun-13 05:13S 31°49' W 107°50'0 0.0 20.6
2018-Jun-13 04:57S 31°49' W 107°50'0 0.0 20.6
2018-Jun-13 04:42S 31°49' W 107°50'0 0.0 20.6
2018-Jun-13 04:25S 31°49' W 107°50'1 0.7 20.6
2018-Jun-13 03:43S 31°49' W 107°49'0 0.0 20.6
2018-Jun-13 03:19S 31°49' W 107°49'1 1.1 20.6
2018-Jun-13 02:50S 31°49' W 107°50'1 1.6 20.6
2018-Jun-13 02:27S 31°49' W 107°50'118.0 20.6
2018-Jun-13 02:25S 31°49' W 107°50'0 0.0 20.6
2018-Jun-13 01:11S 31°49' W 107°50'0 0.0 20.5
2018-Jun-13 01:09S 31°49' W 107°50'0 0.0 20.5
2018-Jun-13 00:50S 31°49' W 107°50'0 0.0 20.5
2018-Jun-13 00:41S 31°49' W 107°50'0 0.0 20.5
2018-Jun-13 00:37S 31°49' W 107°50'1 0.6 20.5
2018-Jun-12 23:12S 31°48' W 107°50'0 0.0 20.6
2018-Jun-12 22:58S 31°48' W 107°50'4 0.8 20.6
2018-Jun-12 17:58S 31°44' W 107°51'1 0.7 20.5
2018-Jun-12 17:03S 31°44' W 107°51'0 0.0 20.5
2018-Jun-12 16:59S 31°44' W 107°51'1 1.1 20.5
2018-Jun-12 16:27S 31°44' W 107°51'1 3.8 20.5
2018-Jun-12 16:19S 31°44' W 107°50'1 0.5 20.5
2018-Jun-12 15:22S 31°44' W 107°51'0 0.0 20.5
2018-Jun-12 15:13S 31°44' W 107°51'1 1.9 20.5
2018-Jun-12 14:48S 31°43' W 107°50'0 0.0 20.5
2018-Jun-12 14:35S 31°43' W 107°50'0 0.0 20.5
2018-Jun-12 14:27S 31°43' W 107°50'1 0.7 20.5
2018-Jun-12 13:40S 31°43' W 107°50'0 0.0 20.5
2018-Jun-12 13:09S 31°43' W 107°50'1 1.7 20.5
2018-Jun-12 12:48S 31°43' W 107°50'0 0.0 20.5
2018-Jun-12 12:12S 31°43' W 107°50'0 0.0 20.5
2018-Jun-12 12:10S 31°43' W 107°50'1 2.0 20.5
2018-Jun-12 11:55S 31°43' W 107°49'0 0.0 20.5
2018-Jun-12 10:26S 31°43' W 107°49'0 0.0 20.5
2018-Jun-12 06:42S 31°43' W 107°49'0 0.0 20.5
2018-Jun-12 05:45S 31°43' W 107°49'0 0.0 20.5
2018-Jun-12 05:09S 31°43' W 107°49'0 0.0 20.5
2018-Jun-12 05:05S 31°43' W 107°49'1 0.5 20.5
2018-Jun-12 04:04S 31°43' W 107°50'0 0.0 20.5
2018-Jun-12 03:26S 31°43' W 107°50'1 4.7 20.5
2018-Jun-12 03:11S 31°42' W 107°51'0 0.0 20.5
2018-Jun-12 01:36S 31°42' W 107°51'0 0.0 20.5
2018-Jun-12 01:24S 31°42' W 107°51'0 0.0 20.5
2018-Jun-12 01:19S 31°42' W 107°51'0 0.0 20.5
2018-Jun-12 00:52S 31°42' W 107°51'1 0.9 20.5
2018-Jun-11 23:40S 31°42' W 107°52'0 0.0 20.5
2018-Jun-11 23:13S 31°42' W 107°52'3 0.5 20.5
2018-Jun-11 17:22S 31°39' W 107°53'0 0.0 20.4
2018-Jun-11 17:12S 31°39' W 107°53'0 0.0 20.4
2018-Jun-11 16:42S 31°39' W 107°53'115.3 20.4
2018-Jun-11 16:40S 31°39' W 107°53'1 0.5 20.4
2018-Jun-11 15:41S 31°39' W 107°52'0 0.0 20.4
2018-Jun-11 14:59S 31°39' W 107°52'1 7.7 20.4
2018-Jun-11 14:55S 31°39' W 107°53'1 0.7 20.4
2018-Jun-11 14:12S 31°39' W 107°52'1 0.7 20.4
2018-Jun-11 13:20S 31°38' W 107°52'1 0.9 20.4
2018-Jun-11 12:27S 31°39' W 107°53'1 0.3 20.4
2018-Jun-11 10:45S 31°39' W 107°52'1 0.3 20.4
2018-Jun-11 09:00S 31°38' W 107°52'1 0.2 20.4
2018-Jun-11 06:05S 31°38' W 107°53'0 0.0 20.4
2018-Jun-11 05:25S 31°38' W 107°53'0 0.0 20.4
2018-Jun-11 05:18S 31°38' W 107°53'1 0.6 20.4
2018-Jun-11 04:27S 31°38' W 107°53'1 0.8 20.4
2018-Jun-11 03:41S 31°38' W 107°53'1 0.3 20.4
2018-Jun-11 02:02S 31°38' W 107°54'1 5.1 20.4
2018-Jun-11 01:55S 31°37' W 107°54'1 0.9 20.4
2018-Jun-11 01:03S 31°37' W 107°55'1 0.7 20.4
2018-Jun-11 00:12S 31°36' W 107°55'1 0.8 20.4
2018-Jun-10 23:24S 31°35' W 107°55'4 2.5 20.4
2018-Jun-10 21:38S 31°31' W 107°53'0 0.0 20.2
2018-Jun-10 17:39S 31°31' W 107°53'1 1.1 20.2
2018-Jun-10 16:55S 31°31' W 107°52'1 0.7 20.3
2018-Jun-10 16:04S 31°30' W 107°52'0 0.0 20.3
2018-Jun-10 16:00S 31°30' W 107°52'1 0.9 20.3
2018-Jun-10 15:20S 31°29' W 107°52'0 0.0 20.3
2018-Jun-10 15:09S 31°29' W 107°52'1 2.9 20.3
2018-Jun-10 14:42S 31°28' W 107°52'1 3.7 20.3
2018-Jun-10 14:21S 31°29' W 107°52'1 1.8 20.3
2018-Jun-10 13:37S 31°28' W 107°52'1 1.1 20.3
2018-Jun-10 13:03S 31°28' W 107°52'5 9.8 20.4
2018-Jun-10 12:31S 31°23' W 107°49'5 8.8 20.4
2018-Jun-10 11:59S 31°27' W 107°52'5 4.6 20.4
2018-Jun-10 10:58S 31°23' W 107°49'0 0.0 20.4
2018-Jun-10 10:54S 31°23' W 107°49'0 0.0 20.4
2018-Jun-10 06:24S 31°23' W 107°49'0 0.0 20.3
2018-Jun-10 05:46S 31°23' W 107°49'1 1.6 20.3
2018-Jun-10 05:27S 31°23' W 107°49'1 1.2 20.3
2018-Jun-10 04:47S 31°22' W 107°48'1 0.9 20.3
2018-Jun-10 04:05S 31°22' W 107°48'0 0.0 20.3
2018-Jun-10 03:52S 31°22' W 107°48'1 1.0 20.3
2018-Jun-10 03:03S 31°21' W 107°47'0 0.0 20.5
2018-Jun-10 02:57S 31°21' W 107°47'1 1.0
2018-Jun-10 02:21S 31°20' W 107°47'1 9.0 20.5
2018-Jun-10 02:17S 31°20' W 107°47'0 0.0 20.5
2018-Jun-10 02:11S 31°20' W 107°47'0 0.0 20.5
2018-Jun-10 01:13S 31°20' W 107°47'2 3.1 20.6
2018-Jun-10 00:42S 31°19' W 107°46'0 0.0
2018-Jun-09 23:36S 31°19' W 107°46'1 1.1 20.7
2018-Jun-09 23:03S 31°18' W 107°46'0 0.0 20.7
2018-Jun-09 21:51S 31°18' W 107°46'3 0.7 20.7
2018-Jun-09 17:59S 31°16' W 107°45'0 0.0 20.5
2018-Jun-09 17:21S 31°16' W 107°45'1 0.8 20.5
2018-Jun-09 16:24S 31°15' W 107°44'1 3.3 20.4
2018-Jun-09 16:13S 31°14' W 107°44'0 0.0 20.4
2018-Jun-09 15:35S 31°14' W 107°44'0 0.0 20.3
2018-Jun-09 15:24S 31°14' W 107°44'0 0.0 20.3
2018-Jun-09 15:10S 31°14' W 107°44'1 1.1 20.2
2018-Jun-09 14:06S 31°14' W 107°43'0 0.0
2018-Jun-09 14:04S 31°14' W 107°43'1 1.3 20.2
2018-Jun-09 13:41S 31°14' W 107°43'0 0.0 20.3
2018-Jun-09 13:33S 31°14' W 107°43'1 1.7 20.3
2018-Jun-09 12:46S 31°13' W 107°42'0 0.0 20.4
2018-Jun-09 12:23S 31°13' W 107°42'0 0.0 20.4
2018-Jun-09 11:49S 31°13' W 107°42'0 0.0 20.5
2018-Jun-09 11:09S 31°13' W 107°42'0 0.0 20.5
2018-Jun-09 11:05S 31°13' W 107°42'4 0.8 20.5
2018-Jun-09 06:43S 31°12' W 107°38'0 0.0 20.5
2018-Jun-09 06:05S 31°12' W 107°38'0 0.0 20.5
2018-Jun-09 05:08S 31°12' W 107°38'1 1.5 20.5
2018-Jun-09 04:26S 31°12' W 107°37'0 0.0 20.6
2018-Jun-09 04:05S 31°12' W 107°37'1 0.8 20.6
2018-Jun-09 03:25S 31°12' W 107°36'0 0.0 20.6
2018-Jun-09 02:51S 31°12' W 107°36'123.7 20.5
2018-Jun-09 02:49S 31°13' W 107°35'0 0.0 20.5
2018-Jun-09 02:23S 31°13' W 107°35'1 0.5 20.5
2018-Jun-09 01:24S 31°13' W 107°35'0 0.0 20.5
2018-Jun-09 01:12S 31°13' W 107°35'1 0.4 20.5
2018-Jun-08 23:47S 31°13' W 107°34'1 1.5 20.5
2018-Jun-08 23:26S 31°13' W 107°34'3 2.2 20.5
2018-Jun-08 22:02S 31°12' W 107°30'0 0.0 20.5
2018-Jun-08 17:40S 31°12' W 107°30'1 0.3 20.5
2018-Jun-08 15:58S 31°12' W 107°29'1 1.3 20.4
2018-Jun-08 15:35S 31°12' W 107°29'1 1.5 20.4
2018-Jun-08 15:04S 31°13' W 107°28'1 9.5 20.4
2018-Jun-08 14:59S 31°12' W 107°29'1 2.2 20.4
2018-Jun-08 14:26S 31°13' W 107°28'1 1.8 20.5
2018-Jun-08 14:06S 31°12' W 107°28'1 3.4 20.5
2018-Jun-08 13:52S 31°13' W 107°27'1 1.3 20.5
2018-Jun-08 12:55S 31°12' W 107°26'0 0.0 20.5
2018-Jun-08 12:48S 31°12' W 107°26'0 0.0 20.5
2018-Jun-08 12:25S 31°12' W 107°26'1 0.9 20.5
2018-Jun-08 11:13S 31°12' W 107°25'0 0.0 20.5
2018-Jun-08 11:11S 31°12' W 107°25'1 0.6 20.5
2018-Jun-08 09:36S 31°12' W 107°23'3 1.2 20.5
2018-Jun-08 07:02S 31°13' W 107°20'1 1.2 20.5
2018-Jun-08 06:22S 31°13' W 107°19'0 0.0 20.5
2018-Jun-08 05:27S 31°13' W 107°19'1 0.8 20.5
2018-Jun-08 04:43S 31°14' W 107°19'1 2.1 20.6
2018-Jun-08 04:13S 31°14' W 107°18'1 1.4 20.6
2018-Jun-08 03:48S 31°14' W 107°18'1 1.3 20.7
2018-Jun-08 03:12S 31°15' W 107°17'0 0.0 20.7
2018-Jun-08 02:36S 31°15' W 107°17'0 0.0 20.7
2018-Jun-08 01:48S 31°15' W 107°17'0 0.0 20.7
2018-Jun-08 01:43S 31°15' W 107°17'1 6.0 20.7
2018-Jun-08 01:37S 31°16' W 107°17'111.8 20.7
2018-Jun-08 01:33S 31°16' W 107°17'1 0.4 20.7
2018-Jun-08 00:06S 31°16' W 107°17'0 0.0 20.7
2018-Jun-07 23:54S 31°16' W 107°17'1 0.3 20.7
2018-Jun-07 22:17S 31°16' W 107°16'2 0.4 20.8
2018-Jun-07 17:57S 31°15' W 107°14'   20.7
Track history (hours):
 
Tides and Currents Weather Stations Pressure Air Temp Water Temp Dewpoint Dewpoint Depression Visibility Wind Speed Wind Dir Waves Ship Positions

Drifting buoy 32868

Last reported at 2018-Jun-17 17:57 UTC. Time now 2018-Jun-17 22:12 UTC.
Position S 31°53' W 107°41'.

Water temperature 20.5 ° C

Date/timePositionNaut miles runAvg speedWind from/ knotsBaromVisibWave heightAir tempDewpointWater temp
2018-Jun-17 17:57S 31°53' W 107°41'0 0.0 20.5
2018-Jun-17 16:58S 31°53' W 107°41'1 1.0 20.5
2018-Jun-17 16:11S 31°53' W 107°40'1 0.7 20.5
2018-Jun-17 15:27S 31°53' W 107°41'1 3.6 20.5
2018-Jun-17 15:17S 31°54' W 107°41'0 0.0 20.5
2018-Jun-17 15:12S 31°54' W 107°41'1 1.0 20.5
2018-Jun-17 14:24S 31°55' W 107°40'1 1.8 20.5
2018-Jun-17 14:07S 31°55' W 107°41'0 0.0 20.5
2018-Jun-17 14:03S 31°55' W 107°41'0 0.0 20.5
2018-Jun-17 13:50S 31°55' W 107°41'0 0.0 20.5
2018-Jun-17 12:53S 31°55' W 107°41'0 0.0 20.5
2018-Jun-17 12:42S 31°55' W 107°41'1 4.1 20.5
2018-Jun-17 12:23S 31°56' W 107°41'0 0.0 20.5
2018-Jun-17 11:12S 31°56' W 107°41'1 0.4 20.5
2018-Jun-17 09:26S 31°56' W 107°41'0 0.0 20.5
2018-Jun-17 06:39S 31°56' W 107°41'1 0.6 20.5
2018-Jun-17 05:46S 31°56' W 107°41'0 0.0 20.5
2018-Jun-17 05:42S 31°56' W 107°41'0 0.0 20.5
2018-Jun-17 05:00S 31°56' W 107°41'1 0.8 20.5
2018-Jun-17 04:24S 31°56' W 107°41'0 0.0 20.5
2018-Jun-17 04:12S 31°56' W 107°41'0 0.0 20.5
2018-Jun-17 04:01S 31°56' W 107°41'1 0.4 20.5
2018-Jun-17 02:49S 31°56' W 107°40'1 1.6 20.5
2018-Jun-17 02:26S 31°57' W 107°40'0 0.0 20.5
2018-Jun-17 02:07S 31°57' W 107°40'0 0.0 20.5
2018-Jun-17 02:03S 31°57' W 107°40'1 1.0 20.5
2018-Jun-17 01:31S 31°57' W 107°40'1 1.5 20.5
2018-Jun-17 01:10S 31°57' W 107°40'0 0.0 20.5
2018-Jun-17 01:06S 31°57' W 107°40'0 0.0 20.5
2018-Jun-17 00:26S 31°57' W 107°40'0 0.0
2018-Jun-17 00:23S 31°57' W 107°40'1 2.3 20.5
2018-Jun-16 23:56S 31°57' W 107°39'1 0.3 20.5
2018-Jun-16 22:11S 31°57' W 107°40'2 0.5 20.5
2018-Jun-16 17:13S 31°59' W 107°40'1 1.0 20.3
2018-Jun-16 16:37S 32°00' W 107°40'1 0.3 20.3
2018-Jun-16 14:53S 32°01' W 107°40'0 0.0 20.4
2018-Jun-16 14:26S 32°01' W 107°40'0 0.0 20.4
2018-Jun-16 14:01S 32°01' W 107°40'0 0.0 20.4
2018-Jun-16 13:12S 32°01' W 107°40'1 1.2 20.4
2018-Jun-16 12:47S 32°01' W 107°41'0 0.0 20.4
2018-Jun-16 11:25S 32°01' W 107°41'0 0.0 20.4
2018-Jun-16 09:47S 32°01' W 107°41'0 0.0 20.4
2018-Jun-16 09:43S 32°01' W 107°41'1 0.2 20.4
2018-Jun-16 06:56S 32°01' W 107°40'0 0.0 20.3
2018-Jun-16 06:01S 32°01' W 107°40'0 0.0 20.3
2018-Jun-16 05:21S 32°01' W 107°40'0 0.0 20.3
2018-Jun-16 04:20S 32°01' W 107°40'1 3.8 20.3
2018-Jun-16 04:12S 32°01' W 107°40'1 1.1
2018-Jun-16 03:40S 32°01' W 107°40'0 0.0 20.4
2018-Jun-16 03:11S 32°01' W 107°40'0 0.0 20.4
2018-Jun-16 02:43S 32°01' W 107°40'1 3.6 20.4
2018-Jun-16 02:33S 32°02' W 107°40'0 0.0 20.4
2018-Jun-16 01:42S 32°02' W 107°40'1 6.0 20.3
2018-Jun-16 01:36S 32°01' W 107°40'1 1.2 20.3
2018-Jun-16 00:57S 32°02' W 107°39'1 0.9 20.4
2018-Jun-16 00:07S 32°02' W 107°40'1 0.7 20.4
2018-Jun-15 23:18S 32°03' W 107°40'1 0.6 20.4
2018-Jun-15 22:25S 32°03' W 107°39'3 0.6 20.4
2018-Jun-15 17:36S 32°06' W 107°40'1 1.9 20.3
2018-Jun-15 16:58S 32°05' W 107°41'0 0.0 20.2
2018-Jun-15 16:01S 32°05' W 107°41'1 7.6 20.2
2018-Jun-15 15:57S 32°05' W 107°41'0 0.0 20.2
2018-Jun-15 15:23S 32°05' W 107°41'0 0.0 20.2
2018-Jun-15 15:15S 32°05' W 107°41'1 1.3 20.2
2018-Jun-15 14:52S 32°05' W 107°42'1 0.9 20.2
2018-Jun-15 14:12S 32°05' W 107°42'0 0.0 20.3
2018-Jun-15 13:44S 32°05' W 107°42'1 1.1 20.4
2018-Jun-15 13:12S 32°04' W 107°42'0 0.0 20.5
2018-Jun-15 12:34S 32°04' W 107°42'0 0.0 20.5
2018-Jun-15 12:05S 32°04' W 107°42'1 1.7 20.5
2018-Jun-15 11:37S 32°04' W 107°43'1 0.4 20.4
2018-Jun-15 10:00S 32°03' W 107°43'0 0.0 20.1
2018-Jun-15 09:56S 32°03' W 107°43'2 0.5 20.1
2018-Jun-15 06:21S 32°02' W 107°44'0 0.0 20.3
2018-Jun-15 05:41S 32°02' W 107°44'1 0.5 20.4
2018-Jun-15 04:41S 32°02' W 107°45'1 7.9 20.4
2018-Jun-15 04:35S 32°01' W 107°44'1 3.1 20.4
2018-Jun-15 04:25S 32°01' W 107°45'1 1.3 20.4
2018-Jun-15 04:01S 32°01' W 107°44'1 1.2 20.5
2018-Jun-15 03:36S 32°01' W 107°45'0 0.0 20.5
2018-Jun-15 02:56S 32°01' W 107°45'0 0.0 20.5
2018-Jun-15 02:52S 32°01' W 107°45'1 0.6 20.5
2018-Jun-15 01:59S 32°01' W 107°46'0 0.0 20.5
2018-Jun-15 01:51S 32°01' W 107°46'0 0.0 20.5
2018-Jun-15 01:27S 32°01' W 107°46'0 0.0 20.5
2018-Jun-15 01:25S 32°01' W 107°46'0 0.0 20.5
2018-Jun-15 00:18S 32°01' W 107°46'1 1.1 20.4
2018-Jun-14 23:50S 32°01' W 107°46'0 0.0 20.4
2018-Jun-14 23:44S 32°01' W 107°46'1 0.7 20.4
2018-Jun-14 22:38S 32°01' W 107°46'311.2 20.4
2018-Jun-14 22:24S 32°00' W 107°49'0 0.0 20.4
2018-Jun-14 17:58S 32°00' W 107°49'0 0.0 20.5
2018-Jun-14 17:55S 32°00' W 107°49'0 0.0 20.5
2018-Jun-14 17:13S 32°00' W 107°49'1 0.9 20.5
2018-Jun-14 16:21S 31°59' W 107°49'0 0.0 20.5
2018-Jun-14 16:12S 31°59' W 107°49'1 5.9 20.5
2018-Jun-14 16:04S 31°59' W 107°49'1 1.2 20.5
2018-Jun-14 15:38S 31°59' W 107°49'1 1.6 20.5
2018-Jun-14 15:19S 31°59' W 107°50'1 6.0 20.5
2018-Jun-14 15:13S 31°58' W 107°50'0 0.0 20.5
2018-Jun-14 14:26S 31°58' W 107°50'0 0.0 20.5
2018-Jun-14 14:12S 31°58' W 107°50'1 0.9 20.5
2018-Jun-14 13:38S 31°58' W 107°49'1 0.8 20.5
2018-Jun-14 12:37S 31°58' W 107°50'1 1.0 20.5
2018-Jun-14 12:01S 31°57' W 107°50'0 0.0 20.5
2018-Jun-14 11:52S 31°57' W 107°50'0 0.0 20.5
2018-Jun-14 11:48S 31°57' W 107°50'1 0.4 20.5
2018-Jun-14 10:11S 31°56' W 107°50'0 0.0 20.5
2018-Jun-14 10:07S 31°56' W 107°50'1 0.2 20.5
2018-Jun-14 06:40S 31°56' W 107°49'1 0.9 20.6
2018-Jun-14 06:02S 31°55' W 107°49'0 0.0 20.6
2018-Jun-14 05:03S 31°55' W 107°49'1 1.8 20.6
2018-Jun-14 04:46S 31°55' W 107°50'0 0.0 20.6
2018-Jun-14 04:23S 31°55' W 107°50'1 1.7 20.6
2018-Jun-14 04:02S 31°55' W 107°50'1 1.2 20.6
2018-Jun-14 03:21S 31°55' W 107°49'0 0.0 20.6
2018-Jun-14 03:15S 31°55' W 107°49'0 0.0 20.6
2018-Jun-14 03:07S 31°55' W 107°49'1 0.8 20.6
2018-Jun-14 02:27S 31°55' W 107°50'0 0.0 20.6
2018-Jun-14 02:01S 31°55' W 107°50'1 9.0 20.6
2018-Jun-14 01:57S 31°55' W 107°50'1 0.5 20.6
2018-Jun-14 00:45S 31°55' W 107°50'1 1.6 20.6
2018-Jun-14 00:26S 31°55' W 107°50'0 0.0 20.6
2018-Jun-14 00:20S 31°55' W 107°50'0 0.0
2018-Jun-14 00:18S 31°55' W 107°50'1 0.5 20.6
2018-Jun-13 22:49S 31°55' W 107°51'2 0.5 20.7
2018-Jun-13 18:17S 31°53' W 107°53'0 0.0 20.6
2018-Jun-13 17:37S 31°53' W 107°53'1 0.5 20.6
2018-Jun-13 16:19S 31°52' W 107°53'0 0.0 20.6
2018-Jun-13 16:12S 31°52' W 107°53'0 0.0 20.6
2018-Jun-13 15:59S 31°52' W 107°53'1 0.6 20.6
2018-Jun-13 15:02S 31°52' W 107°53'0 0.0 20.6
2018-Jun-13 14:46S 31°52' W 107°53'1 3.4 20.6
2018-Jun-13 14:37S 31°52' W 107°53'1 1.5 20.6
2018-Jun-13 14:06S 31°51' W 107°53'0 0.0 20.6
2018-Jun-13 14:03S 31°51' W 107°53'1 0.6 20.6
2018-Jun-13 13:09S 31°51' W 107°52'1 3.3 20.6
2018-Jun-13 12:58S 31°50' W 107°52'1 1.2 20.6
2018-Jun-13 12:20S 31°50' W 107°52'1 1.8 20.6
2018-Jun-13 12:03S 31°50' W 107°52'1 7.6 20.6
2018-Jun-13 11:59S 31°50' W 107°52'1 0.4 20.6
2018-Jun-13 10:22S 31°49' W 107°52'0 0.0 20.6
2018-Jun-13 10:18S 31°49' W 107°52'2 0.5 20.6
2018-Jun-13 06:59S 31°49' W 107°50'0 0.0 20.6
2018-Jun-13 06:21S 31°49' W 107°50'0 0.0 20.6
2018-Jun-13 05:24S 31°49' W 107°50'0 0.0 20.6
2018-Jun-13 05:13S 31°49' W 107°50'0 0.0 20.6
2018-Jun-13 04:57S 31°49' W 107°50'0 0.0 20.6
2018-Jun-13 04:42S 31°49' W 107°50'0 0.0 20.6
2018-Jun-13 04:25S 31°49' W 107°50'1 0.7 20.6
2018-Jun-13 03:43S 31°49' W 107°49'0 0.0 20.6
2018-Jun-13 03:19S 31°49' W 107°49'1 1.1 20.6
2018-Jun-13 02:50S 31°49' W 107°50'1 1.6 20.6
2018-Jun-13 02:27S 31°49' W 107°50'118.0 20.6
2018-Jun-13 02:25S 31°49' W 107°50'0 0.0 20.6
2018-Jun-13 01:11S 31°49' W 107°50'0 0.0 20.5
2018-Jun-13 01:09S 31°49' W 107°50'0 0.0 20.5
2018-Jun-13 00:50S 31°49' W 107°50'0 0.0 20.5
2018-Jun-13 00:41S 31°49' W 107°50'0 0.0 20.5
2018-Jun-13 00:37S 31°49' W 107°50'1 0.6 20.5
2018-Jun-12 23:12S 31°48' W 107°50'0 0.0 20.6
2018-Jun-12 22:58S 31°48' W 107°50'4 0.8 20.6
2018-Jun-12 17:58S 31°44' W 107°51'1 0.7 20.5
2018-Jun-12 17:03S 31°44' W 107°51'0 0.0 20.5
2018-Jun-12 16:59S 31°44' W 107°51'1 1.1 20.5
2018-Jun-12 16:27S 31°44' W 107°51'1 3.8 20.5
2018-Jun-12 16:19S 31°44' W 107°50'1 0.5 20.5
2018-Jun-12 15:22S 31°44' W 107°51'0 0.0 20.5
2018-Jun-12 15:13S 31°44' W 107°51'1 1.9 20.5
2018-Jun-12 14:48S 31°43' W 107°50'0 0.0 20.5
2018-Jun-12 14:35S 31°43' W 107°50'0 0.0 20.5
2018-Jun-12 14:27S 31°43' W 107°50'1 0.7 20.5
2018-Jun-12 13:40S 31°43' W 107°50'0 0.0 20.5
2018-Jun-12 13:09S 31°43' W 107°50'1 1.7 20.5
2018-Jun-12 12:48S 31°43' W 107°50'0 0.0 20.5
2018-Jun-12 12:12S 31°43' W 107°50'0 0.0 20.5
2018-Jun-12 12:10S 31°43' W 107°50'1 2.0 20.5
2018-Jun-12 11:55S 31°43' W 107°49'0 0.0 20.5
2018-Jun-12 10:26S 31°43' W 107°49'0 0.0 20.5
2018-Jun-12 06:42S 31°43' W 107°49'0 0.0 20.5
2018-Jun-12 05:45S 31°43' W 107°49'0 0.0 20.5
2018-Jun-12 05:09S 31°43' W 107°49'0 0.0 20.5
2018-Jun-12 05:05S 31°43' W 107°49'1 0.5 20.5
2018-Jun-12 04:04S 31°43' W 107°50'0 0.0 20.5
2018-Jun-12 03:26S 31°43' W 107°50'1 4.7 20.5
2018-Jun-12 03:11S 31°42' W 107°51'0 0.0 20.5
2018-Jun-12 01:36S 31°42' W 107°51'0 0.0 20.5
2018-Jun-12 01:24S 31°42' W 107°51'0 0.0 20.5
2018-Jun-12 01:19S 31°42' W 107°51'0 0.0 20.5
2018-Jun-12 00:52S 31°42' W 107°51'1 0.9 20.5
2018-Jun-11 23:40S 31°42' W 107°52'0 0.0 20.5
2018-Jun-11 23:13S 31°42' W 107°52'3 0.5 20.5
2018-Jun-11 17:22S 31°39' W 107°53'0 0.0 20.4
2018-Jun-11 17:12S 31°39' W 107°53'0 0.0 20.4
2018-Jun-11 16:42S 31°39' W 107°53'115.3 20.4
2018-Jun-11 16:40S 31°39' W 107°53'1 0.5 20.4
2018-Jun-11 15:41S 31°39' W 107°52'0 0.0 20.4
2018-Jun-11 14:59S 31°39' W 107°52'1 7.7 20.4
2018-Jun-11 14:55S 31°39' W 107°53'1 0.7 20.4
2018-Jun-11 14:12S 31°39' W 107°52'1 0.7 20.4
2018-Jun-11 13:20S 31°38' W 107°52'1 0.9 20.4
2018-Jun-11 12:27S 31°39' W 107°53'1 0.3 20.4
2018-Jun-11 10:45S 31°39' W 107°52'1 0.3 20.4
2018-Jun-11 09:00S 31°38' W 107°52'1 0.2 20.4
2018-Jun-11 06:05S 31°38' W 107°53'0 0.0 20.4
2018-Jun-11 05:25S 31°38' W 107°53'0 0.0 20.4
2018-Jun-11 05:18S 31°38' W 107°53'1 0.6 20.4
2018-Jun-11 04:27S 31°38' W 107°53'1 0.8 20.4
2018-Jun-11 03:41S 31°38' W 107°53'1 0.3 20.4
2018-Jun-11 02:02S 31°38' W 107°54'1 5.1 20.4
2018-Jun-11 01:55S 31°37' W 107°54'1 0.9 20.4
2018-Jun-11 01:03S 31°37' W 107°55'1 0.7 20.4
2018-Jun-11 00:12S 31°36' W 107°55'1 0.8 20.4
2018-Jun-10 23:24S 31°35' W 107°55'4 2.5 20.4
2018-Jun-10 21:38S 31°31' W 107°53'0 0.0 20.2
2018-Jun-10 17:39S 31°31' W 107°53'1 1.1 20.2
2018-Jun-10 16:55S 31°31' W 107°52'1 0.7 20.3
2018-Jun-10 16:04S 31°30' W 107°52'0 0.0 20.3
2018-Jun-10 16:00S 31°30' W 107°52'1 0.9 20.3
2018-Jun-10 15:20S 31°29' W 107°52'0 0.0 20.3
2018-Jun-10 15:09S 31°29' W 107°52'1 2.9 20.3
2018-Jun-10 14:42S 31°28' W 107°52'1 3.7 20.3
2018-Jun-10 14:21S 31°29' W 107°52'1 1.8 20.3
2018-Jun-10 13:37S 31°28' W 107°52'1 1.1 20.3
2018-Jun-10 13:03S 31°28' W 107°52'5 9.8 20.4
2018-Jun-10 12:31S 31°23' W 107°49'5 8.8 20.4
2018-Jun-10 11:59S 31°27' W 107°52'5 4.6 20.4
2018-Jun-10 10:58S 31°23' W 107°49'0 0.0 20.4
2018-Jun-10 10:54S 31°23' W 107°49'0 0.0 20.4
2018-Jun-10 06:24S 31°23' W 107°49'0 0.0 20.3
2018-Jun-10 05:46S 31°23' W 107°49'1 1.6 20.3
2018-Jun-10 05:27S 31°23' W 107°49'1 1.2 20.3
2018-Jun-10 04:47S 31°22' W 107°48'1 0.9 20.3
2018-Jun-10 04:05S 31°22' W 107°48'0 0.0 20.3
2018-Jun-10 03:52S 31°22' W 107°48'1 1.0 20.3
2018-Jun-10 03:03S 31°21' W 107°47'0 0.0 20.5
2018-Jun-10 02:57S 31°21' W 107°47'1 1.0
2018-Jun-10 02:21S 31°20' W 107°47'1 9.0 20.5
2018-Jun-10 02:17S 31°20' W 107°47'0 0.0 20.5
2018-Jun-10 02:11S 31°20' W 107°47'0 0.0 20.5
2018-Jun-10 01:13S 31°20' W 107°47'2 3.1 20.6
2018-Jun-10 00:42S 31°19' W 107°46'0 0.0
2018-Jun-09 23:36S 31°19' W 107°46'1 1.1 20.7
2018-Jun-09 23:03S 31°18' W 107°46'0 0.0 20.7
2018-Jun-09 21:51S 31°18' W 107°46'3 0.7 20.7
2018-Jun-09 17:59S 31°16' W 107°45'0 0.0 20.5
2018-Jun-09 17:21S 31°16' W 107°45'1 0.8 20.5
2018-Jun-09 16:24S 31°15' W 107°44'1 3.3 20.4
2018-Jun-09 16:13S 31°14' W 107°44'0 0.0 20.4
2018-Jun-09 15:35S 31°14' W 107°44'0 0.0 20.3
2018-Jun-09 15:24S 31°14' W 107°44'0 0.0 20.3
2018-Jun-09 15:10S 31°14' W 107°44'1 1.1 20.2
2018-Jun-09 14:06S 31°14' W 107°43'0 0.0
2018-Jun-09 14:04S 31°14' W 107°43'1 1.3 20.2
2018-Jun-09 13:41S 31°14' W 107°43'0 0.0 20.3
2018-Jun-09 13:33S 31°14' W 107°43'1 1.7 20.3
2018-Jun-09 12:46S 31°13' W 107°42'0 0.0 20.4
2018-Jun-09 12:23S 31°13' W 107°42'0 0.0 20.4
2018-Jun-09 11:49S 31°13' W 107°42'0 0.0 20.5
2018-Jun-09 11:09S 31°13' W 107°42'0 0.0 20.5
2018-Jun-09 11:05S 31°13' W 107°42'4 0.8 20.5
2018-Jun-09 06:43S 31°12' W 107°38'0 0.0 20.5
2018-Jun-09 06:05S 31°12' W 107°38'0 0.0 20.5
2018-Jun-09 05:08S 31°12' W 107°38'1 1.5 20.5
2018-Jun-09 04:26S 31°12' W 107°37'0 0.0 20.6
2018-Jun-09 04:05S 31°12' W 107°37'1 0.8 20.6
2018-Jun-09 03:25S 31°12' W 107°36'0 0.0 20.6
2018-Jun-09 02:51S 31°12' W 107°36'123.7 20.5
2018-Jun-09 02:49S 31°13' W 107°35'0 0.0 20.5
2018-Jun-09 02:23S 31°13' W 107°35'1 0.5 20.5
2018-Jun-09 01:24S 31°13' W 107°35'0 0.0 20.5
2018-Jun-09 01:12S 31°13' W 107°35'1 0.4 20.5
2018-Jun-08 23:47S 31°13' W 107°34'1 1.5 20.5
2018-Jun-08 23:26S 31°13' W 107°34'3 2.2 20.5
2018-Jun-08 22:02S 31°12' W 107°30'0 0.0 20.5
2018-Jun-08 17:40S 31°12' W 107°30'1 0.3 20.5
2018-Jun-08 15:58S 31°12' W 107°29'1 1.3 20.4
2018-Jun-08 15:35S 31°12' W 107°29'1 1.5 20.4
2018-Jun-08 15:04S 31°13' W 107°28'1 9.5 20.4
2018-Jun-08 14:59S 31°12' W 107°29'1 2.2 20.4
2018-Jun-08 14:26S 31°13' W 107°28'1 1.8 20.5
2018-Jun-08 14:06S 31°12' W 107°28'1 3.4 20.5
2018-Jun-08 13:52S 31°13' W 107°27'1 1.3 20.5
2018-Jun-08 12:55S 31°12' W 107°26'0 0.0 20.5
2018-Jun-08 12:48S 31°12' W 107°26'0 0.0 20.5
2018-Jun-08 12:25S 31°12' W 107°26'1 0.9 20.5
2018-Jun-08 11:13S 31°12' W 107°25'0 0.0 20.5
2018-Jun-08 11:11S 31°12' W 107°25'1 0.6 20.5
2018-Jun-08 09:36S 31°12' W 107°23'3 1.2 20.5
2018-Jun-08 07:02S 31°13' W 107°20'1 1.2 20.5
2018-Jun-08 06:22S 31°13' W 107°19'0 0.0 20.5
2018-Jun-08 05:27S 31°13' W 107°19'1 0.8 20.5
2018-Jun-08 04:43S 31°14' W 107°19'1 2.1 20.6
2018-Jun-08 04:13S 31°14' W 107°18'1 1.4 20.6
2018-Jun-08 03:48S 31°14' W 107°18'1 1.3 20.7
2018-Jun-08 03:12S 31°15' W 107°17'0 0.0 20.7
2018-Jun-08 02:36S 31°15' W 107°17'0 0.0 20.7
2018-Jun-08 01:48S 31°15' W 107°17'0 0.0 20.7
2018-Jun-08 01:43S 31°15' W 107°17'1 6.0 20.7
2018-Jun-08 01:37S 31°16' W 107°17'111.8 20.7
2018-Jun-08 01:33S 31°16' W 107°17'1 0.4 20.7
2018-Jun-08 00:06S 31°16' W 107°17'0 0.0 20.7
2018-Jun-07 23:54S 31°16' W 107°17'1 0.3 20.7
2018-Jun-07 22:17S 31°16' W 107°16'2 0.4 20.8
2018-Jun-07 17:57S 31°15' W 107°14'   20.7

Dump ship's entire track history